sensor_id;sensor_type;location;lat;lon;timestamp;pressure;altitude;pressure_sealevel;temperature;humidity
49297;BME280;35163;48.878;18.040;2022-11-20T00:00:16;98023.97;;;1.85;69.92
49297;BME280;35163;48.878;18.040;2022-11-20T00:02:43;98030.78;;;1.78;70.48
49297;BME280;35163;48.878;18.040;2022-11-20T00:05:09;98030.78;;;1.81;70.59
49297;BME280;35163;48.878;18.040;2022-11-20T00:07:36;98035.88;;;1.82;70.69
49297;BME280;35163;48.878;18.040;2022-11-20T00:10:03;98041.81;;;1.86;70.54
49297;BME280;35163;48.878;18.040;2022-11-20T00:12:29;98044.34;;;1.89;70.51
49297;BME280;35163;48.878;18.040;2022-11-20T00:14:56;98046.06;;;1.89;70.60
49297;BME280;35163;48.878;18.040;2022-11-20T00:17:23;98049.44;;;1.91;70.90
49297;BME280;35163;48.878;18.040;2022-11-20T00:19:49;98045.19;;;1.91;70.35
49297;BME280;35163;48.878;18.040;2022-11-20T00:22:16;98051.16;;;1.92;70.53
49297;BME280;35163;48.878;18.040;2022-11-20T00:24:42;98057.09;;;1.96;70.17
49297;BME280;35163;48.878;18.040;2022-11-20T00:27:09;98051.16;;;1.87;70.37
49297;BME280;35163;48.878;18.040;2022-11-20T00:29:36;98041.81;;;1.89;69.99
49297;BME280;35163;48.878;18.040;2022-11-20T00:32:02;98036.72;;;1.86;69.94
49297;BME280;35163;48.878;18.040;2022-11-20T00:34:29;98030.75;;;1.84;70.40
49297;BME280;35163;48.878;18.040;2022-11-20T00:36:55;98030.75;;;1.86;70.81
49297;BME280;35163;48.878;18.040;2022-11-20T00:39:22;98030.75;;;1.84;70.20
49297;BME280;35163;48.878;18.040;2022-11-20T00:41:49;98031.63;;;1.81;70.59
49297;BME280;35163;48.878;18.040;2022-11-20T00:44:16;98040.97;;;1.81;70.73
49297;BME280;35163;48.878;18.040;2022-11-20T00:46:43;98024.84;;;1.74;70.98
49297;BME280;35163;48.878;18.040;2022-11-20T00:49:09;98024.81;;;1.77;70.98
49297;BME280;35163;48.878;18.040;2022-11-20T00:51:36;98030.78;;;1.78;70.76
49297;BME280;35163;48.878;18.040;2022-11-20T00:54:02;98028.22;;;1.81;71.25
49297;BME280;35163;48.878;18.040;2022-11-20T00:56:29;98029.94;;;1.84;70.81
49297;BME280;35163;48.878;18.040;2022-11-20T00:58:59;98032.50;;;1.82;70.46
49297;BME280;35163;48.878;18.040;2022-11-20T01:01:26;98022.28;;;1.82;70.53
49297;BME280;35163;48.878;18.040;2022-11-20T01:03:57;98018.03;;;1.82;70.36
49297;BME280;35163;48.878;18.040;2022-11-20T01:06:32;98026.53;;;1.83;70.96
49297;BME280;35163;48.878;18.040;2022-11-20T01:09:10;98029.09;;;1.80;71.53
49297;BME280;35163;48.878;18.040;2022-11-20T01:11:40;98045.22;;;1.77;72.25
49297;BME280;35163;48.878;18.040;2022-11-20T01:14:11;98043.53;;;1.78;71.80
49297;BME280;35163;48.878;18.040;2022-11-20T01:16:44;98039.28;;;1.80;72.04
49297;BME280;35163;48.878;18.040;2022-11-20T01:19:14;98032.47;;;1.79;71.91
49297;BME280;35163;48.878;18.040;2022-11-20T01:21:45;98030.81;;;1.73;72.21
49297;BME280;35163;48.878;18.040;2022-11-20T01:24:14;98034.19;;;1.74;72.32
49297;BME280;35163;48.878;18.040;2022-11-20T01:26:43;98030.78;;;1.68;70.96
49297;BME280;35163;48.878;18.040;2022-11-20T01:29:14;98034.22;;;1.55;71.66
49297;BME280;35163;48.878;18.040;2022-11-20T01:31:41;98034.22;;;1.45;71.31
49297;BME280;35163;48.878;18.040;2022-11-20T01:34:14;98050.38;;;1.41;71.97
49297;BME280;35163;48.878;18.040;2022-11-20T01:36:42;98052.91;;;1.41;72.84
49297;BME280;35163;48.878;18.040;2022-11-20T01:39:13;98047.81;;;1.37;72.88
49297;BME280;35163;48.878;18.040;2022-11-20T01:41:41;98052.06;;;1.31;73.04
49297;BME280;35163;48.878;18.040;2022-11-20T01:47:39;98052.94;;;1.32;74.29
49297;BME280;35163;48.878;18.040;2022-11-20T01:50:14;98042.72;;;1.35;74.77
49297;BME280;35163;48.878;18.040;2022-11-20T01:52:45;98044.41;;;1.39;74.20
49297;BME280;35163;48.878;18.040;2022-11-20T01:55:18;98037.63;;;1.37;75.33
49297;BME280;35163;48.878;18.040;2022-11-20T01:57:47;98036.75;;;1.41;74.54
49297;BME280;35163;48.878;18.040;2022-11-20T02:00:17;98036.75;;;1.41;75.30
49297;BME280;35163;48.878;18.040;2022-11-20T02:02:48;98030.84;;;1.40;75.60
49297;BME280;35163;48.878;18.040;2022-11-20T02:08:13;98029.97;;;1.41;75.46
49297;BME280;35163;48.878;18.040;2022-11-20T02:10:40;98024.06;;;1.42;75.99
49297;BME280;35163;48.878;18.040;2022-11-20T02:13:07;98029.13;;;1.39;75.65
49297;BME280;35163;48.878;18.040;2022-11-20T02:15:53;98037.63;;;1.38;76.10
49297;BME280;35163;48.878;18.040;2022-11-20T02:18:20;98037.63;;;1.41;76.13
49297;BME280;35163;48.878;18.040;2022-11-20T02:20:53;98030.84;;;1.43;76.79
49297;BME280;35163;48.878;18.040;2022-11-20T02:23:39;98037.63;;;1.44;75.82
49297;BME280;35163;48.878;18.040;2022-11-20T02:26:12;98038.47;;;1.43;76.65
49297;BME280;35163;48.878;18.040;2022-11-20T02:28:39;98049.53;;;1.45;75.84
49297;BME280;35163;48.878;18.040;2022-11-20T02:31:06;98052.06;;;1.49;76.06
49297;BME280;35163;48.878;18.040;2022-11-20T02:33:34;98045.28;;;1.49;76.00
49297;BME280;35163;48.878;18.040;2022-11-20T02:36:00;98046.09;;;1.50;76.03
49297;BME280;35163;48.878;18.040;2022-11-20T02:38:27;98040.19;;;1.48;76.10
49297;BME280;35163;48.878;18.040;2022-11-20T02:40:54;98047.84;;;1.48;76.22
49297;BME280;35163;48.878;18.040;2022-11-20T02:43:22;98050.38;;;1.49;75.72
49297;BME280;35163;48.878;18.040;2022-11-20T02:45:48;98057.16;;;1.52;75.60
49297;BME280;35163;48.878;18.040;2022-11-20T02:48:15;98058.88;;;1.53;76.17
49297;BME280;35163;48.878;18.040;2022-11-20T02:50:42;98057.16;;;1.53;76.29
49297;BME280;35163;48.878;18.040;2022-11-20T02:53:09;98059.69;;;1.58;76.60
49297;BME280;35163;48.878;18.040;2022-11-20T02:55:36;98055.44;;;1.57;76.82
49297;BME280;35163;48.878;18.040;2022-11-20T02:58:03;98054.59;;;1.58;76.69
49297;BME280;35163;48.878;18.040;2022-11-20T03:00:29;98050.34;;;1.58;76.74
49297;BME280;35163;48.878;18.040;2022-11-20T03:02:56;98037.59;;;1.60;76.68
49297;BME280;35163;48.878;18.040;2022-11-20T03:05:22;98019.78;;;1.51;75.65
49297;BME280;35163;48.878;18.040;2022-11-20T03:07:49;98029.97;;;1.44;76.01
49297;BME280;35163;48.878;18.040;2022-11-20T03:10:16;98030.81;;;1.47;76.23
49297;BME280;35163;48.878;18.040;2022-11-20T03:12:42;98030.81;;;1.50;75.87
49297;BME280;35163;48.878;18.040;2022-11-20T03:15:09;98042.72;;;1.48;76.19
49297;BME280;35163;48.878;18.040;2022-11-20T03:17:36;98051.22;;;1.47;76.08
49297;BME280;35163;48.878;18.040;2022-11-20T03:20:03;98056.31;;;1.50;75.86
49297;BME280;35163;48.878;18.040;2022-11-20T03:22:30;98058.03;;;1.51;75.41
49297;BME280;35163;48.878;18.040;2022-11-20T03:24:57;98052.91;;;1.54;75.93
49297;BME280;35163;48.878;18.040;2022-11-20T03:27:23;98043.56;;;1.54;76.03
49297;BME280;35163;48.878;18.040;2022-11-20T03:29:50;98042.72;;;1.54;75.36
49297;BME280;35163;48.878;18.040;2022-11-20T03:32:17;98048.69;;;1.54;75.84
49297;BME280;35163;48.878;18.040;2022-11-20T03:34:43;98041.03;;;1.57;76.12
49297;BME280;35163;48.878;18.040;2022-11-20T03:37:10;98039.31;;;1.60;76.66
49297;BME280;35163;48.878;18.040;2022-11-20T03:39:37;98042.69;;;1.62;75.99
49297;BME280;35163;48.878;18.040;2022-11-20T03:42:03;98038.47;;;1.62;76.03
49297;BME280;35163;48.878;18.040;2022-11-20T03:44:50;98030.81;;;1.59;76.66
49297;BME280;35163;48.878;18.040;2022-11-20T03:47:16;98030.81;;;1.59;76.65
49297;BME280;35163;48.878;18.040;2022-11-20T03:49:43;98025.72;;;1.59;76.31
49297;BME280;35163;48.878;18.040;2022-11-20T03:52:09;98029.97;;;1.60;76.89
49297;BME280;35163;48.878;18.040;2022-11-20T03:54:36;98033.38;;;1.61;76.50
49297;BME280;35163;48.878;18.040;2022-11-20T03:57:02;98035.06;;;1.62;76.61
49297;BME280;35163;48.878;18.040;2022-11-20T03:59:29;98034.19;;;1.58;76.36
49297;BME280;35163;48.878;18.040;2022-11-20T04:01:56;98029.13;;;1.60;76.05
49297;BME280;35163;48.878;18.040;2022-11-20T04:04:22;98034.19;;;1.58;77.21
49297;BME280;35163;48.878;18.040;2022-11-20T04:06:49;98019.75;;;1.58;76.54
49297;BME280;35163;48.878;18.040;2022-11-20T04:09:15;98013.00;;;1.56;76.03
49297;BME280;35163;48.878;18.040;2022-11-20T04:11:42;98015.53;;;1.54;76.43
49297;BME280;35163;48.878;18.040;2022-11-20T04:14:15;98005.34;;;1.56;76.20
49297;BME280;35163;48.878;18.040;2022-11-20T04:16:42;97998.53;;;1.55;76.35
49297;BME280;35163;48.878;18.040;2022-11-20T04:19:11;97999.38;;;1.55;76.26
49297;BME280;35163;48.878;18.040;2022-11-20T04:21:38;98008.72;;;1.55;76.14
49297;BME280;35163;48.878;18.040;2022-11-20T04:24:05;98015.53;;;1.56;76.44
49297;BME280;35163;48.878;18.040;2022-11-20T04:26:32;98006.16;;;1.58;76.46
49297;BME280;35163;48.878;18.040;2022-11-20T04:28:59;98010.44;;;1.61;76.34
49297;BME280;35163;48.878;18.040;2022-11-20T04:31:30;97997.69;;;1.57;76.27
49297;BME280;35163;48.878;18.040;2022-11-20T04:34:05;98001.91;;;1.60;76.73
49297;BME280;35163;48.878;18.040;2022-11-20T04:36:32;97998.53;;;1.60;76.34
49297;BME280;35163;48.878;18.040;2022-11-20T04:39:00;97997.69;;;1.62;75.85
49297;BME280;35163;48.878;18.040;2022-11-20T04:41:30;97996.81;;;1.63;76.51
49297;BME280;35163;48.878;18.040;2022-11-20T04:43:59;97995.97;;;1.64;76.83
49297;BME280;35163;48.878;18.040;2022-11-20T04:46:33;97988.31;;;1.66;76.78
49297;BME280;35163;48.878;18.040;2022-11-20T04:49:00;97992.56;;;1.67;77.13
49297;BME280;35163;48.878;18.040;2022-11-20T04:51:27;97990.00;;;1.67;76.90
49297;BME280;35163;48.878;18.040;2022-11-20T04:53:54;97984.06;;;1.68;76.98
49297;BME280;35163;48.878;18.040;2022-11-20T04:56:20;97966.22;;;1.69;76.93
49297;BME280;35163;48.878;18.040;2022-11-20T04:58:47;97972.16;;;1.65;76.73
49297;BME280;35163;48.878;18.040;2022-11-20T05:01:23;97958.59;;;1.65;76.62
49297;BME280;35163;48.878;18.040;2022-11-20T05:03:51;97956.88;;;1.68;77.18
49297;BME280;35163;48.878;18.040;2022-11-20T05:06:20;97951.75;;;1.70;76.96
49297;BME280;35163;48.878;18.040;2022-11-20T05:08:47;97949.22;;;1.72;77.43
49297;BME280;35163;48.878;18.040;2022-11-20T05:11:17;97935.66;;;1.68;77.10
49297;BME280;35163;48.878;18.040;2022-11-20T05:13:44;97938.22;;;1.55;77.19
49297;BME280;35163;48.878;18.040;2022-11-20T05:16:13;97935.72;;;1.48;77.52
49297;BME280;35163;48.878;18.040;2022-11-20T05:18:41;97940.78;;;1.46;77.58
49297;BME280;35163;48.878;18.040;2022-11-20T05:21:09;97938.28;;;1.35;78.53
49297;BME280;35163;48.878;18.040;2022-11-20T05:23:36;97939.13;;;1.28;78.73
49297;BME280;35163;48.878;18.040;2022-11-20T05:26:04;97928.09;;;1.23;79.28
49297;BME280;35163;48.878;18.040;2022-11-20T05:28:32;97928.94;;;1.25;79.02
49297;BME280;35163;48.878;18.040;2022-11-20T05:31:10;97923.00;;;1.24;78.83
49297;BME280;35163;48.878;18.040;2022-11-20T05:33:39;97925.56;;;1.19;80.40
49297;BME280;35163;48.878;18.040;2022-11-20T05:36:07;97923.84;;;1.15;80.85
49297;BME280;35163;48.878;18.040;2022-11-20T05:38:34;97933.19;;;1.18;80.24
49297;BME280;35163;48.878;18.040;2022-11-20T05:43:35;97925.56;;;1.18;80.51
49297;BME280;35163;48.878;18.040;2022-11-20T05:46:03;97927.25;;;1.19;80.86
49297;BME280;35163;48.878;18.040;2022-11-20T05:48:30;97922.16;;;1.17;80.80
49297;BME280;35163;48.878;18.040;2022-11-20T05:50:58;97928.97;;;1.18;80.83
49297;BME280;35163;48.878;18.040;2022-11-20T05:53:25;97930.66;;;1.16;80.93
49297;BME280;35163;48.878;18.040;2022-11-20T05:56:00;97924.69;;;1.19;81.78
49297;BME280;35163;48.878;18.040;2022-11-20T05:58:28;97924.69;;;1.20;81.59
49297;BME280;35163;48.878;18.040;2022-11-20T06:00:55;97928.09;;;1.23;81.44
49297;BME280;35163;48.878;18.040;2022-11-20T06:03:29;97921.31;;;1.21;82.01
49297;BME280;35163;48.878;18.040;2022-11-20T06:05:55;97920.44;;;1.23;80.90
49297;BME280;35163;48.878;18.040;2022-11-20T06:08:22;97926.41;;;1.12;82.51
49297;BME280;35163;48.878;18.040;2022-11-20T06:10:48;97928.97;;;1.06;84.08
49297;BME280;35163;48.878;18.040;2022-11-20T06:13:15;97934.91;;;1.09;83.79
49297;BME280;35163;48.878;18.040;2022-11-20T06:15:41;97937.44;;;1.14;82.85
49297;BME280;35163;48.878;18.040;2022-11-20T06:18:08;97941.69;;;1.09;83.33
49297;BME280;35163;48.878;18.040;2022-11-20T06:20:35;97938.31;;;1.13;83.74
49297;BME280;35163;48.878;18.040;2022-11-20T06:23:07;97953.59;;;1.04;83.19
49297;BME280;35163;48.878;18.040;2022-11-20T06:25:37;97946.78;;;1.09;83.49
49297;BME280;35163;48.878;18.040;2022-11-20T06:28:04;97958.69;;;1.16;82.77
49297;BME280;35163;48.878;18.040;2022-11-20T06:30:31;97952.72;;;1.20;83.54
49297;BME280;35163;48.878;18.040;2022-11-20T06:32:57;97957.84;;;1.24;83.12
49297;BME280;35163;48.878;18.040;2022-11-20T06:35:24;97967.16;;;1.29;82.88
49297;BME280;35163;48.878;18.040;2022-11-20T06:37:50;97954.38;;;1.34;82.67
49297;BME280;35163;48.878;18.040;2022-11-20T06:40:17;97953.56;;;1.37;82.36
49297;BME280;35163;48.878;18.040;2022-11-20T06:42:44;97957.81;;;1.42;82.86
49297;BME280;35163;48.878;18.040;2022-11-20T06:45:11;97967.97;;;1.45;82.91
49297;BME280;35163;48.878;18.040;2022-11-20T06:47:37;97963.75;;;1.48;82.34
49297;BME280;35163;48.878;18.040;2022-11-20T06:50:04;97973.06;;;1.52;82.48
49297;BME280;35163;48.878;18.040;2022-11-20T06:52:31;97970.50;;;1.55;82.51
49297;BME280;35163;48.878;18.040;2022-11-20T06:54:57;97975.56;;;1.58;82.12
49297;BME280;35163;48.878;18.040;2022-11-20T06:57:24;97978.16;;;1.61;81.92
49297;BME280;35163;48.878;18.040;2022-11-20T06:59:51;97980.69;;;1.63;81.92
49297;BME280;35163;48.878;18.040;2022-11-20T07:02:17;97987.47;;;1.67;82.46
49297;BME280;35163;48.878;18.040;2022-11-20T07:04:44;97985.75;;;1.69;81.95
49297;BME280;35163;48.878;18.040;2022-11-20T07:07:11;97993.41;;;1.72;81.53
49297;BME280;35163;48.878;18.040;2022-11-20T07:09:37;97986.59;;;1.73;82.08
49297;BME280;35163;48.878;18.040;2022-11-20T07:12:04;97983.22;;;1.77;82.06
49297;BME280;35163;48.878;18.040;2022-11-20T07:14:31;97988.28;;;1.83;81.27
49297;BME280;35163;48.878;18.040;2022-11-20T07:16:57;97983.19;;;1.85;80.64
49297;BME280;35163;48.878;18.040;2022-11-20T07:19:24;97984.03;;;1.85;81.03
49297;BME280;35163;48.878;18.040;2022-11-20T07:21:51;97981.47;;;1.85;80.58
49297;BME280;35163;48.878;18.040;2022-11-20T07:24:18;97975.53;;;1.85;80.08
49297;BME280;35163;48.878;18.040;2022-11-20T07:26:47;97978.94;;;1.82;80.24
49297;BME280;35163;48.878;18.040;2022-11-20T07:29:16;97985.72;;;1.85;79.80
49297;BME280;35163;48.878;18.040;2022-11-20T07:31:43;97991.66;;;1.87;80.56
49297;BME280;35163;48.878;18.040;2022-11-20T07:34:09;97983.16;;;1.89;80.38
49297;BME280;35163;48.878;18.040;2022-11-20T07:36:36;97978.91;;;1.91;79.91
49297;BME280;35163;48.878;18.040;2022-11-20T07:39:03;97982.28;;;1.97;80.21
49297;BME280;35163;48.878;18.040;2022-11-20T07:41:29;97979.72;;;2.00;79.49
49297;BME280;35163;48.878;18.040;2022-11-20T07:43:56;97966.09;;;2.04;80.01
49297;BME280;35163;48.878;18.040;2022-11-20T07:46:23;97967.78;;;2.08;79.77
49297;BME280;35163;48.878;18.040;2022-11-20T07:48:49;97971.16;;;2.12;80.25
49297;BME280;35163;48.878;18.040;2022-11-20T07:51:16;97975.41;;;2.17;79.95
49297;BME280;35163;48.878;18.040;2022-11-20T07:53:42;97991.53;;;2.23;79.94
49297;BME280;35163;48.878;18.040;2022-11-20T07:56:09;97996.63;;;2.23;80.22
49297;BME280;35163;48.878;18.040;2022-11-20T07:58:36;98000.84;;;2.28;79.59
49297;BME280;35163;48.878;18.040;2022-11-20T08:01:04;98000.84;;;2.28;79.49
49297;BME280;35163;48.878;18.040;2022-11-20T08:03:31;98008.50;;;2.33;79.21
49297;BME280;35163;48.878;18.040;2022-11-20T08:06:01;98009.34;;;2.35;78.50
49297;BME280;35163;48.878;18.040;2022-11-20T08:08:28;98010.16;;;2.37;78.37
49297;BME280;35163;48.878;18.040;2022-11-20T08:10:59;98008.47;;;2.36;78.24
49297;BME280;35163;48.878;18.040;2022-11-20T08:13:44;98003.34;;;2.42;78.79
49297;BME280;35163;48.878;18.040;2022-11-20T08:16:29;98008.41;;;2.46;78.35
49297;BME280;35163;48.878;18.040;2022-11-20T08:18:56;98001.59;;;2.51;78.62
49297;BME280;35163;48.878;18.040;2022-11-20T08:21:22;98001.59;;;2.54;78.76
49297;BME280;35163;48.878;18.040;2022-11-20T08:23:50;98016.88;;;2.57;78.36
49297;BME280;35163;48.878;18.040;2022-11-20T08:26:17;98019.44;;;2.59;78.76
49297;BME280;35163;48.878;18.040;2022-11-20T08:28:43;98011.78;;;2.57;78.98
49297;BME280;35163;48.878;18.040;2022-11-20T08:31:10;98020.25;;;2.62;78.71
49297;BME280;35163;48.878;18.040;2022-11-20T08:33:37;98026.22;;;2.64;79.74
49297;BME280;35163;48.878;18.040;2022-11-20T08:36:05;98028.78;;;2.64;78.97
49297;BME280;35163;48.878;18.040;2022-11-20T08:38:32;98030.47;;;2.65;79.66
49297;BME280;35163;48.878;18.040;2022-11-20T08:41:01;98038.13;;;2.65;79.27
49297;BME280;35163;48.878;18.040;2022-11-20T08:43:46;98041.50;;;2.67;80.31
49297;BME280;35163;48.878;18.040;2022-11-20T08:46:13;98032.97;;;2.69;79.92
49297;BME280;35163;48.878;18.040;2022-11-20T08:48:40;98030.41;;;2.72;80.21
49297;BME280;35163;48.878;18.040;2022-11-20T08:51:07;98026.16;;;2.72;80.56
49297;BME280;35163;48.878;18.040;2022-11-20T08:53:33;98030.41;;;2.72;81.16
49297;BME280;35163;48.878;18.040;2022-11-20T08:56:00;98018.47;;;2.75;81.20
49297;BME280;35163;48.878;18.040;2022-11-20T08:58:27;98020.16;;;2.81;81.48
49297;BME280;35163;48.878;18.040;2022-11-20T09:00:54;98016.69;;;2.85;80.59
49297;BME280;35163;48.878;18.040;2022-11-20T09:03:21;98015.84;;;2.89;80.73
49297;BME280;35163;48.878;18.040;2022-11-20T09:05:47;98023.44;;;2.96;81.19
49297;BME280;35163;48.878;18.040;2022-11-20T09:08:14;98015.75;;;3.02;80.91
49297;BME280;35163;48.878;18.040;2022-11-20T09:10:41;98024.22;;;3.10;80.17
49297;BME280;35163;48.878;18.040;2022-11-20T09:13:07;98033.53;;;3.14;80.25
49297;BME280;35163;48.878;18.040;2022-11-20T09:15:34;98028.41;;;3.21;80.28
49297;BME280;35163;48.878;18.040;2022-11-20T09:18:02;98022.38;;;3.26;79.93
49297;BME280;35163;48.878;18.040;2022-11-20T09:20:33;98017.19;;;3.36;79.75
49297;BME280;35163;48.878;18.040;2022-11-20T09:23:00;98010.38;;;3.38;79.40
49297;BME280;35163;48.878;18.040;2022-11-20T09:25:26;98014.56;;;3.47;79.92
49297;BME280;35163;48.878;18.040;2022-11-20T09:27:57;98014.56;;;3.47;78.93
49297;BME280;35163;48.878;18.040;2022-11-20T09:30:25;98018.78;;;3.49;78.87
49297;BME280;35163;48.878;18.040;2022-11-20T09:32:51;98017.09;;;3.48;79.14
49297;BME280;35163;48.878;18.040;2022-11-20T09:35:18;98023.91;;;3.48;79.19
49297;BME280;35163;48.878;18.040;2022-11-20T09:37:45;98026.44;;;3.51;79.46
49297;BME280;35163;48.878;18.040;2022-11-20T09:40:24;98014.47;;;3.53;78.74
49297;BME280;35163;48.878;18.040;2022-11-20T09:48:48;97987.94;;;3.65;78.66
49297;BME280;35163;48.878;18.040;2022-11-20T09:52:17;97992.16;;;3.71;77.44
49297;BME280;35163;48.878;18.040;2022-11-20T09:54:36;97997.28;;;3.71;77.29
49297;BME280;35163;48.878;18.040;2022-11-20T09:57:37;97993.81;;;3.75;77.63
49297;BME280;35163;48.878;18.040;2022-11-20T10:00:09;98001.50;;;3.73;78.13
49297;BME280;35163;48.878;18.040;2022-11-20T10:05:22;98002.38;;;3.71;78.53
49297;BME280;35163;48.878;18.040;2022-11-20T10:11:05;98015.16;;;3.69;78.73
49297;BME280;35163;48.878;18.040;2022-11-20T10:13:44;98011.75;;;3.70;79.17
49297;BME280;35163;48.878;18.040;2022-11-20T10:25:19;98008.19;;;3.85;79.55
49297;BME280;35163;48.878;18.040;2022-11-20T10:30:20;98009.00;;;3.91;80.17
49297;BME280;35163;48.878;18.040;2022-11-20T10:33:08;98008.13;;;3.90;79.96
49297;BME280;35163;48.878;18.040;2022-11-20T10:36:08;98013.25;;;3.90;80.12
49297;BME280;35163;48.878;18.040;2022-11-20T10:38:47;98005.56;;;3.90;80.23
49297;BME280;35163;48.878;18.040;2022-11-20T10:41:21;97998.75;;;3.91;80.14
49297;BME280;35163;48.878;18.040;2022-11-20T10:46:45;97985.97;;;3.91;80.12
49297;BME280;35163;48.878;18.040;2022-11-20T10:49:14;97991.91;;;3.93;79.95
49297;BME280;35163;48.878;18.040;2022-11-20T10:54:41;98000.38;;;3.98;80.53
49297;BME280;35163;48.878;18.040;2022-11-20T10:57:22;97997.81;;;3.98;80.42
49297;BME280;35163;48.878;18.040;2022-11-20T11:00:21;98000.31;;;4.03;80.94
49297;BME280;35163;48.878;18.040;2022-11-20T11:02:52;98001.16;;;4.05;80.45
49297;BME280;35163;48.878;18.040;2022-11-20T11:05:42;97996.03;;;4.06;80.55
49297;BME280;35163;48.878;18.040;2022-11-20T11:08:17;97993.41;;;4.09;80.41
49297;BME280;35163;48.878;18.040;2022-11-20T11:10:54;97990.03;;;4.07;79.65
49297;BME280;35163;48.878;18.040;2022-11-20T11:13:26;97975.53;;;4.08;80.10
49297;BME280;35163;48.878;18.040;2022-11-20T11:15:54;97978.06;;;4.09;79.79
49297;BME280;35163;48.878;18.040;2022-11-20T11:18:32;97984.84;;;4.13;79.86
49297;BME280;35163;48.878;18.040;2022-11-20T11:21:02;97982.28;;;4.15;79.80
49297;BME280;35163;48.878;18.040;2022-11-20T11:23:36;97983.13;;;4.14;79.57
49297;BME280;35163;48.878;18.040;2022-11-20T11:26:06;97985.66;;;4.17;79.76
49297;BME280;35163;48.878;18.040;2022-11-20T11:28:34;97981.38;;;4.18;79.52
49297;BME280;35163;48.878;18.040;2022-11-20T11:31:00;97983.88;;;4.21;79.30
49297;BME280;35163;48.878;18.040;2022-11-20T11:33:31;97978.75;;;4.22;79.52
49297;BME280;35163;48.878;18.040;2022-11-20T11:36:02;97969.31;;;4.26;79.19
49297;BME280;35163;48.878;18.040;2022-11-20T11:38:41;97962.44;;;4.31;79.03
49297;BME280;35163;48.878;18.040;2022-11-20T11:41:14;97958.06;;;4.38;78.64
49297;BME280;35163;48.878;18.040;2022-11-20T11:43:54;97945.25;;;4.40;78.91
49297;BME280;35163;48.878;18.040;2022-11-20T11:46:44;97940.06;;;4.46;78.75
49297;BME280;35163;48.878;18.040;2022-11-20T11:49:16;97951.97;;;4.47;78.96
49297;BME280;35163;48.878;18.040;2022-11-20T11:51:58;97951.97;;;4.48;78.42
49297;BME280;35163;48.878;18.040;2022-11-20T11:57:59;97945.25;;;4.41;78.67
49297;BME280;35163;48.878;18.040;2022-11-20T12:05:35;97946.09;;;4.40;79.09
49297;BME280;35163;48.878;18.040;2022-11-20T12:10:57;97942.66;;;4.43;79.31
49297;BME280;35163;48.878;18.040;2022-11-20T12:13:42;97947.78;;;4.43;79.13
49297;BME280;35163;48.878;18.040;2022-11-20T12:16:13;97941.84;;;4.41;79.01
49297;BME280;35163;48.878;18.040;2022-11-20T12:18:41;97941.84;;;4.41;79.10
49297;BME280;35163;48.878;18.040;2022-11-20T12:39:49;97942.56;;;4.49;79.64
49297;BME280;35163;48.878;18.040;2022-11-20T12:42:42;97951.13;;;4.48;79.34
49297;BME280;35163;48.878;18.040;2022-11-20T13:07:24;97927.38;;;4.36;79.81
49297;BME280;35163;48.878;18.040;2022-11-20T13:09:53;97932.50;;;4.36;79.63
49297;BME280;35163;48.878;18.040;2022-11-20T13:12:32;97929.97;;;4.33;80.25
49297;BME280;35163;48.878;18.040;2022-11-20T13:18:03;97925.78;;;4.28;80.13
49297;BME280;35163;48.878;18.040;2022-11-20T13:20:31;97927.56;;;4.24;80.09
49297;BME280;35163;48.878;18.040;2022-11-20T13:22:59;97932.69;;;4.24;80.64
49297;BME280;35163;48.878;18.040;2022-11-20T13:25:31;97931.84;;;4.22;80.52
49297;BME280;35163;48.878;18.040;2022-11-20T13:30:37;97925.13;;;4.15;80.52
49297;BME280;35163;48.878;18.040;2022-11-20T13:33:34;97925.13;;;4.15;80.29
49297;BME280;35163;48.878;18.040;2022-11-20T13:36:04;97922.59;;;4.11;80.47
49297;BME280;35163;48.878;18.040;2022-11-20T13:38:47;97928.56;;;4.10;80.79
49297;BME280;35163;48.878;18.040;2022-11-20T13:41:29;97920.03;;;4.11;80.95
49297;BME280;35163;48.878;18.040;2022-11-20T13:44:15;97926.84;;;4.12;81.25
49297;BME280;35163;48.878;18.040;2022-11-20T13:46:50;97921.72;;;4.12;81.37
49297;BME280;35163;48.878;18.040;2022-11-20T13:51:51;97902.97;;;4.10;81.26
49297;BME280;35163;48.878;18.040;2022-11-20T14:00:13;97909.84;;;4.08;81.81
49297;BME280;35163;48.878;18.040;2022-11-20T14:02:41;97904.75;;;4.07;82.07
49297;BME280;35163;48.878;18.040;2022-11-20T14:05:20;97904.78;;;4.05;81.96
49297;BME280;35163;48.878;18.040;2022-11-20T14:07:49;97909.06;;;4.05;81.97
49297;BME280;35163;48.878;18.040;2022-11-20T14:10:28;97903.94;;;4.05;82.58
49297;BME280;35163;48.878;18.040;2022-11-20T14:12:58;97905.66;;;4.03;82.75
49297;BME280;35163;48.878;18.040;2022-11-20T14:17:51;97900.59;;;3.99;82.94
49297;BME280;35163;48.878;18.040;2022-11-20T14:20:18;97894.63;;;3.99;83.16
49297;BME280;35163;48.878;18.040;2022-11-20T14:22:50;97875.03;;;3.98;83.55
49297;BME280;35163;48.878;18.040;2022-11-20T14:25:21;97879.28;;;3.97;83.30
49297;BME280;35163;48.878;18.040;2022-11-20T14:28:00;97886.97;;;3.96;83.69
49297;BME280;35163;48.878;18.040;2022-11-20T14:30:48;97893.81;;;3.94;83.56
49297;BME280;35163;48.878;18.040;2022-11-20T14:33:15;97893.84;;;3.92;83.94
49297;BME280;35163;48.878;18.040;2022-11-20T14:35:47;97885.34;;;3.90;83.74
49297;BME280;35163;48.878;18.040;2022-11-20T14:38:16;97894.75;;;3.89;83.35
49297;BME280;35163;48.878;18.040;2022-11-20T14:40:45;97897.34;;;3.88;82.86
49297;BME280;35163;48.878;18.040;2022-11-20T14:43:24;97895.63;;;3.87;83.59
49297;BME280;35163;48.878;18.040;2022-11-20T14:46:03;97893.09;;;3.85;83.80
49297;BME280;35163;48.878;18.040;2022-11-20T14:48:33;97894.81;;;3.83;83.54
49297;BME280;35163;48.878;18.040;2022-11-20T14:51:01;97899.94;;;3.82;83.83
49297;BME280;35163;48.878;18.040;2022-11-20T14:53:28;97892.28;;;3.80;83.93
49297;BME280;35163;48.878;18.040;2022-11-20T14:56:00;97895.75;;;3.78;83.80
49297;BME280;35163;48.878;18.040;2022-11-20T14:58:29;97895.78;;;3.76;84.31
49297;BME280;35163;48.878;18.040;2022-11-20T15:01:05;97897.44;;;3.77;84.38